Time;durP1;ratioP1;P1;durP2;ratioP2;P2;SDS_P1;SDS_P2;PMS_P1;PMS_P2;Temp;Humidity;BMP_temperature;BMP_pressure;BME280_temperature;BME280_humidity;BME280_pressure;Samples;Min_cycle;Max_cycle;Signal;HPM_P1;HPM_P2
2022/05/21 00:01:05;;;;;;;17.30;8.97;;;;;;;10.95;94.48;101956.47;4969796;28;20404;-84
2022/05/21 00:03:31;;;;;;;18.05;9.25;;;;;;;10.99;93.82;101950.38;4973246;28;20281;-85
2022/05/21 00:05:57;;;;;;;18.98;9.75;;;;;;;11.03;94.43;101957.28;4971697;28;20038;-85
2022/05/21 00:08:22;;;;;;;19.25;9.00;;;;;;;11.04;92.78;101964.19;4972966;28;20489;-83
2022/05/21 00:10:47;;;;;;;17.02;9.70;;;;;;;11.05;92.63;101956.38;4976268;28;20042;-83
2022/05/21 00:13:13;;;;;;;16.73;8.77;;;;;;;11.07;92.74;101954.63;4972971;28;20309;-83
2022/05/21 00:15:38;;;;;;;18.48;8.95;;;;;;;11.10;92.55;101958.94;4973208;28;20290;-83
2022/05/21 00:18:05;;;;;;;19.10;9.30;;;;;;;11.15;92.81;101951.13;4972259;28;20070;-83
2022/05/21 00:20:48;;;;;;;17.70;9.10;;;;;;;11.19;92.56;101958.84;4980226;28;20025;-83
2022/05/21 00:23:26;;;;;;;19.35;8.60;;;;;;;11.25;92.60;101961.41;4970372;28;20023;-84
2022/05/21 00:25:58;;;;;;;14.18;7.75;;;;;;;11.26;91.55;101960.53;4968725;28;20034;-83
2022/05/21 00:28:24;;;;;;;16.00;8.68;;;;;;;11.29;91.60;101960.50;4965170;28;20546;-84
2022/05/21 00:30:49;;;;;;;18.73;7.63;;;;;;;11.30;91.54;101958.78;4979185;28;20113;-83
2022/05/21 00:33:15;;;;;;;15.90;7.75;;;;;;;11.32;91.22;101959.63;4972853;28;20601;-83
2022/05/21 00:35:41;;;;;;;14.63;7.65;;;;;;;11.33;91.05;101956.13;4971522;28;20043;-83
2022/05/21 00:38:07;;;;;;;14.35;7.00;;;;;;;11.34;90.95;101950.94;4967060;28;20130;-83
2022/05/21 00:40:33;;;;;;;13.85;6.70;;;;;;;11.36;90.66;101950.94;4976716;28;20093;-85
2022/05/21 00:42:58;;;;;;;14.50;6.82;;;;;;;11.38;91.06;101951.78;4973427;28;20509;-85
2022/05/21 00:45:24;;;;;;;14.35;6.35;;;;;;;11.43;90.72;101965.56;4969020;28;20409;-85
2022/05/21 00:47:50;;;;;;;14.50;6.68;;;;;;;11.44;90.80;101952.59;4970588;28;20121;-85
2022/05/21 00:50:20;;;;;;;10.98;6.28;;;;;;;11.49;90.45;101956.00;4978170;28;20141;-85
2022/05/21 00:52:46;;;;;;;12.60;6.32;;;;;;;11.49;90.50;101947.34;4973162;28;20058;-85
2022/05/21 00:55:15;;;;;;;14.30;6.65;;;;;;;11.49;90.04;101955.13;4980462;28;20172;-85
2022/05/21 00:57:47;;;;;;;15.02;6.93;;;;;;;11.53;90.73;101956.84;4974223;28;20089;-85
2022/05/21 01:00:20;;;;;;;14.88;6.47;;;;;;;11.54;90.18;101962.88;4967798;28;20493;-85
2022/05/21 01:02:50;;;;;;;14.40;6.80;;;;;;;11.56;89.70;101966.31;4972252;28;20443;-85
2022/05/21 01:05:19;;;;;;;11.07;5.97;;;;;;;11.56;90.71;101954.19;4972326;28;20991;-85
2022/05/21 01:07:46;;;;;;;12.65;5.85;;;;;;;11.57;89.78;101961.13;4969177;28;20488;-85
2022/05/21 01:10:15;;;;;;;12.93;6.07;;;;;;;11.61;90.85;101960.19;4980060;28;20037;-84
2022/05/21 01:12:47;;;;;;;14.52;6.00;;;;;;;11.59;89.60;101956.78;4982512;28;20034;-84
2022/05/21 01:15:19;;;;;;;10.85;5.88;;;;;;;11.62;89.65;101953.28;4971579;28;20218;-85
2022/05/21 01:17:45;;;;;;;15.43;6.15;;;;;;;11.62;89.29;101954.13;4970972;28;20023;-84
2022/05/21 01:20:13;;;;;;;13.85;5.93;;;;;;;11.62;89.70;101955.88;4970321;28;20508;-84
2022/05/21 01:22:50;;;;;;;12.05;6.00;;;;;;;11.64;89.40;101964.50;4990837;28;20047;-84
2022/05/21 01:25:19;;;;;;;11.75;5.38;;;;;;;11.64;89.14;101960.19;4971286;28;20442;-84
2022/05/21 01:27:47;;;;;;;11.15;5.50;;;;;;;11.66;89.51;101952.38;4960747;28;20262;-84
2022/05/21 01:30:16;;;;;;;12.05;5.20;;;;;;;11.67;89.19;101949.75;4971828;28;20031;-84
2022/05/21 01:32:46;;;;;;;13.98;5.28;;;;;;;11.70;89.50;101959.25;4970941;28;20046;-84
2022/05/21 01:35:11;;;;;;;12.68;5.28;;;;;;;11.70;88.74;101962.72;4971561;28;20527;-85
2022/05/21 01:37:38;;;;;;;10.30;5.38;;;;;;;11.72;89.01;101960.09;4969581;28;20227;-84
2022/05/21 01:40:04;;;;;;;12.35;5.60;;;;;;;11.72;90.13;101958.38;4971312;28;20022;-84
2022/05/21 01:42:29;;;;;;;13.75;5.57;;;;;;;11.77;90.33;101956.59;4972834;28;20034;-84
2022/05/21 01:44:54;;;;;;;12.32;5.50;;;;;;;11.76;89.36;101951.41;4976362;28;20109;-84
2022/05/21 01:47:20;;;;;;;15.03;5.90;;;;;;;11.76;89.55;101949.69;4963513;28;20087;-84
2022/05/21 01:49:46;;;;;;;14.82;5.82;;;;;;;11.78;89.13;101955.75;4972097;28;20753;-84
2022/05/21 01:52:13;;;;;;;11.82;5.40;;;;;;;11.78;89.20;101954.88;4973758;28;20030;-84
2022/05/21 01:54:39;;;;;;;14.68;5.45;;;;;;;11.79;89.05;101954.88;4986492;28;20188;-84
2022/05/21 01:57:06;;;;;;;16.17;5.05;;;;;;;11.78;89.03;101950.53;4972580;28;20181;-85
2022/05/21 01:59:31;;;;;;;11.05;4.85;;;;;;;11.78;89.00;101954.88;4968828;28;20023;-84
2022/05/21 02:01:57;;;;;;;10.68;4.95;;;;;;;11.80;89.97;101953.13;4968226;28;20123;-84
2022/05/21 02:04:22;;;;;;;12.90;5.35;;;;;;;11.80;89.08;101959.16;4971164;28;20033;-84
2022/05/21 02:06:48;;;;;;;11.57;5.40;;;;;;;11.78;88.64;101953.13;4971213;28;20033;-84
2022/05/21 02:09:14;;;;;;;11.38;5.63;;;;;;;11.80;89.27;101955.72;4986169;28;20038;-84
2022/05/21 02:11:40;;;;;;;14.43;5.88;;;;;;;11.81;88.94;101960.88;4970390;28;20037;-84
2022/05/21 02:14:07;;;;;;;11.93;6.05;;;;;;;11.80;89.59;101959.16;4980373;28;20400;-84
2022/05/21 02:16:34;;;;;;;13.35;6.80;;;;;;;11.82;88.76;101957.41;4971014;28;20057;-85
2022/05/21 02:19:01;;;;;;;14.50;6.60;;;;;;;11.84;89.42;101963.47;4974211;28;20490;-85
2022/05/21 02:21:28;;;;;;;12.20;6.18;;;;;;;11.85;89.96;101962.59;4969627;28;20377;-85
2022/05/21 02:23:53;;;;;;;12.63;6.70;;;;;;;11.85;89.87;101960.00;4976505;28;20519;-85
2022/05/21 02:26:18;;;;;;;15.32;6.50;;;;;;;11.86;89.08;101963.44;4976372;28;20054;-85
2022/05/21 02:28:44;;;;;;;15.33;7.33;;;;;;;11.87;89.32;101967.78;4970529;28;20110;-85
2022/05/21 02:31:09;;;;;;;16.33;7.80;;;;;;;11.87;89.41;101960.81;4970321;28;20286;-85
2022/05/21 02:33:34;;;;;;;15.83;7.53;;;;;;;11.87;89.02;101955.63;4973938;28;20085;-85
2022/05/21 02:36:00;;;;;;;19.27;7.80;;;;;;;11.87;89.11;101960.81;4964784;28;20297;-85
2022/05/21 02:41:11;;;;;;;15.52;7.53;;;;;;;11.88;89.36;101951.28;4981018;28;20563;-85
2022/05/21 02:43:36;;;;;;;19.13;7.32;;;;;;;11.88;89.09;101946.94;4969481;28;20034;-85
2022/05/21 02:46:02;;;;;;;16.57;7.33;;;;;;;11.89;89.11;101947.81;4963566;28;20428;-85
2022/05/21 02:48:29;;;;;;;18.73;7.88;;;;;;;11.87;89.13;101942.63;4969700;28;20417;-85
2022/05/21 02:50:55;;;;;;;19.95;7.68;;;;;;;11.88;89.34;101949.53;4975562;28;20478;-85
2022/05/21 02:53:21;;;;;;;15.10;7.45;;;;;;;11.89;89.07;101947.81;4974753;28;20182;-85
2022/05/21 02:55:47;;;;;;;22.05;7.90;;;;;;;11.90;88.85;101956.47;4975719;28;20049;-85
2022/05/21 02:58:12;;;;;;;17.83;7.93;;;;;;;11.87;88.82;101955.63;4971393;28;20027;-86
2022/05/21 03:00:38;;;;;;;18.63;7.93;;;;;;;11.90;89.02;101956.47;4970690;28;20049;-86
2022/05/21 03:03:03;;;;;;;15.65;7.80;;;;;;;11.91;89.03;101964.25;4975868;28;20034;-85
2022/05/21 03:05:30;;;;;;;19.33;8.33;;;;;;;11.91;89.14;101961.66;4978756;28;20481;-85
2022/05/21 03:07:56;;;;;;;14.98;7.47;;;;;;;11.93;89.74;101964.25;4970631;28;20306;-85
2022/05/21 03:10:24;;;;;;;15.98;7.88;;;;;;;11.93;89.50;101965.09;4965119;28;20061;-86
2022/05/21 03:13:07;;;;;;;15.85;7.47;;;;;;;11.96;89.80;101965.06;4970180;28;20061;-85
2022/05/21 03:15:36;;;;;;;17.27;7.40;;;;;;;11.96;89.36;101959.84;4978465;28;20056;-85
2022/05/21 03:18:04;;;;;;;17.40;7.40;;;;;;;11.96;89.40;101962.44;4967002;28;20037;-86
2022/05/21 03:20:29;;;;;;;16.00;7.20;;;;;;;11.94;89.38;101953.81;4967247;28;20342;-85
2022/05/21 03:22:54;;;;;;;13.98;7.55;;;;;;;11.97;90.17;101956.38;4969086;28;20439;-85
2022/05/21 03:25:20;;;;;;;16.63;7.32;;;;;;;11.97;89.47;101953.78;4974494;28;20048;-86
2022/05/21 03:27:45;;;;;;;17.35;6.93;;;;;;;11.98;88.96;101958.09;5001427;28;20030;-85
2022/05/21 03:30:14;;;;;;;15.90;7.47;;;;;;;11.98;89.22;101952.91;5001711;28;20496;-86
2022/05/21 03:32:39;;;;;;;17.73;7.35;;;;;;;11.96;89.41;101954.66;4970116;28;20282;-85
2022/05/21 03:35:05;;;;;;;16.90;7.47;;;;;;;11.96;89.45;101956.38;4963447;28;20052;-85
2022/05/21 03:37:30;;;;;;;18.20;7.32;;;;;;;11.96;89.09;101959.00;4963522;28;20035;-85
2022/05/21 03:39:56;;;;;;;14.48;6.97;;;;;;;11.95;89.58;101965.06;4974131;28;20033;-85
2022/05/21 03:42:21;;;;;;;17.60;7.35;;;;;;;11.92;89.22;101958.19;4973106;28;20073;-85
2022/05/21 03:44:46;;;;;;;20.73;7.47;;;;;;;11.96;90.88;101969.38;4976688;28;20122;-85
2022/05/21 03:47:13;;;;;;;18.10;7.60;;;;;;;11.95;89.50;101971.13;4973562;28;20476;-86
2022/05/21 03:49:39;;;;;;;15.45;7.50;;;;;;;11.97;89.79;101971.97;4974675;28;20359;-85
2022/05/21 03:52:06;;;;;;;16.35;7.30;;;;;;;11.98;89.45;101962.44;4964459;28;20046;-86
2022/05/21 03:54:32;;;;;;;20.58;8.00;;;;;;;12.01;89.76;101972.81;4973470;28;20043;-85
2022/05/21 03:56:58;;;;;;;18.65;7.68;;;;;;;11.98;89.50;101973.69;4973757;28;20077;-85
2022/05/21 03:59:23;;;;;;;17.73;8.07;;;;;;;12.00;89.67;101973.69;4971611;28;20035;-85
2022/05/21 04:01:48;;;;;;;18.77;7.90;;;;;;;12.00;89.38;101969.34;4977991;28;20058;-86
2022/05/21 04:04:15;;;;;;;22.10;8.50;;;;;;;12.01;90.04;101968.44;4973696;28;20022;-85
2022/05/21 04:06:40;;;;;;;18.80;8.07;;;;;;;12.03;89.58;101973.63;4970923;28;20038;-85
2022/05/21 04:09:06;;;;;;;18.10;7.80;;;;;;;12.04;89.79;101968.44;4965116;28;20035;-85
2022/05/21 04:11:31;;;;;;;20.15;8.55;;;;;;;12.05;90.24;101969.28;4985174;28;20030;-85
2022/05/21 04:13:56;;;;;;;20.83;8.52;;;;;;;12.06;89.58;101982.28;4974868;28;20327;-85
2022/05/21 04:16:22;;;;;;;24.00;8.70;;;;;;;12.06;90.76;101981.41;4972672;28;20045;-85
2022/05/21 04:18:47;;;;;;;19.27;8.65;;;;;;;12.05;89.83;101975.34;4985396;28;20281;-86
2022/05/21 04:21:12;;;;;;;19.00;8.97;;;;;;;12.06;90.00;101987.47;4970520;28;20022;-85
2022/05/21 04:23:38;;;;;;;18.83;8.63;;;;;;;12.10;90.03;101989.16;4992733;28;20553;-85
2022/05/21 04:26:03;;;;;;;20.57;8.63;;;;;;;12.13;89.49;101993.47;4973453;28;20345;-85
2022/05/21 04:28:29;;;;;;;23.58;9.18;;;;;;;12.14;90.07;101993.44;4973093;28;20313;-85
2022/05/21 04:30:54;;;;;;;21.23;8.85;;;;;;;12.16;89.96;101993.41;4975236;28;20058;-85
2022/05/21 04:33:19;;;;;;;17.70;8.60;;;;;;;12.21;89.50;101986.44;4977783;28;20048;-85
2022/05/21 04:38:31;;;;;;;20.75;8.90;;;;;;;12.24;88.97;102002.84;4971763;28;20289;-85
2022/05/21 04:40:56;;;;;;;21.88;8.70;;;;;;;12.27;89.13;101999.34;4975445;28;20032;-85
2022/05/21 04:43:22;;;;;;;23.27;9.40;;;;;;;12.32;89.24;102004.50;4977536;28;20035;-85
2022/05/21 04:45:47;;;;;;;21.27;9.07;;;;;;;12.35;89.57;102000.09;4974574;28;20409;-85
2022/05/21 04:48:12;;;;;;;21.13;9.10;;;;;;;12.37;88.89;102000.94;4970740;28;20294;-85
2022/05/21 04:50:38;;;;;;;20.45;8.77;;;;;;;12.40;88.97;102003.53;4963398;28;20370;-86
2022/05/21 04:53:04;;;;;;;21.73;9.23;;;;;;;12.45;89.47;101998.25;4972672;28;20026;-86
2022/05/21 04:55:30;;;;;;;24.35;9.38;;;;;;;12.45;88.68;102006.91;4972874;28;20043;-85
2022/05/21 04:57:55;;;;;;;23.60;9.20;;;;;;;12.52;89.32;101999.91;4971259;28;20025;-85
2022/05/21 05:00:21;;;;;;;25.42;9.43;;;;;;;12.54;88.54;102004.22;4974141;28;20058;-86
2022/05/21 05:02:46;;;;;;;20.50;9.23;;;;;;;12.56;89.63;102010.22;4971613;28;20034;-86
2022/05/21 05:05:13;;;;;;;24.60;8.75;;;;;;;12.58;88.78;102005.88;4970315;28;20031;-86
2022/05/21 05:07:39;;;;;;;22.58;8.77;;;;;;;12.61;88.48;102013.66;4961860;28;20034;-86
2022/05/21 05:10:05;;;;;;;18.83;8.32;;;;;;;12.65;89.29;102009.25;4972255;28;20109;-86
2022/05/21 05:12:31;;;;;;;22.30;8.90;;;;;;;12.74;88.06;102016.09;4979150;28;20030;-86
2022/05/21 05:14:57;;;;;;;20.08;9.10;;;;;;;12.72;87.75;102015.22;4980630;28;20069;-85
2022/05/21 05:17:22;;;;;;;21.35;8.43;;;;;;;12.79;89.17;102020.34;4969480;28;20031;-86
2022/05/21 05:19:48;;;;;;;20.42;8.88;;;;;;;12.98;87.84;102018.31;4971870;28;20034;-85
2022/05/21 05:22:13;;;;;;;27.57;9.60;;;;;;;12.97;86.47;102020.06;4975679;28;20035;-86
2022/05/21 05:24:39;;;;;;;20.90;8.77;;;;;;;12.99;86.95;102023.50;4964285;28;20289;-86
2022/05/21 05:27:05;;;;;;;20.35;9.35;;;;;;;12.95;86.54;102024.44;4972011;28;20031;-85
2022/05/21 05:29:30;;;;;;;23.90;10.00;;;;;;;13.01;87.74;102026.97;4972121;28;20081;-84
2022/05/21 05:31:56;;;;;;;23.70;9.50;;;;;;;13.02;86.36;102043.44;4971441;28;20057;-85
2022/05/21 05:34:21;;;;;;;29.30;9.90;;;;;;;12.94;86.68;102037.47;4969775;28;20046;-85
2022/05/21 05:36:49;;;;;;;24.73;10.30;;;;;;;12.96;87.95;102039.19;4959350;28;20041;-85
2022/05/21 05:39:16;;;;;;;26.50;10.68;;;;;;;13.03;86.40;102038.19;4965255;28;20031;-85
2022/05/21 05:41:42;;;;;;;27.20;10.80;;;;;;;13.05;88.51;102038.16;4959137;28;20126;-85
2022/05/21 05:44:07;;;;;;;23.65;10.13;;;;;;;13.07;87.35;102042.47;4988213;28;20042;-85
2022/05/21 05:46:33;;;;;;;25.77;9.93;;;;;;;13.16;87.11;102048.47;4967818;28;20054;-85
2022/05/21 05:48:58;;;;;;;25.67;10.27;;;;;;;13.23;87.00;102050.09;4968525;28;20038;-87
2022/05/21 05:51:23;;;;;;;27.10;10.82;;;;;;;13.24;85.91;102043.97;4961153;28;20385;-86
2022/05/21 05:53:50;;;;;;;25.75;10.48;;;;;;;13.27;86.51;102047.41;4958776;28;20037;-86
2022/05/21 05:56:16;;;;;;;28.83;10.13;;;;;;;13.33;86.61;102054.28;4964730;28;20486;-85
2022/05/21 06:01:25;;;;;;;24.27;10.53;;;;;;;13.51;85.17;102050.53;4966809;28;20401;-86
2022/05/21 06:03:51;;;;;;;25.55;10.70;;;;;;;13.49;85.17;102054.91;4973120;28;20294;-86
2022/05/21 06:06:17;;;;;;;23.02;11.43;;;;;;;13.50;85.58;102059.22;4970768;28;20512;-86
2022/05/21 06:08:43;;;;;;;27.73;11.15;;;;;;;13.48;85.54;102046.22;4970871;28;20045;-86
2022/05/21 06:11:10;;;;;;;28.00;11.43;;;;;;;13.53;85.29;102057.41;4960309;28;20039;-86
2022/05/21 06:13:35;;;;;;;27.88;10.65;;;;;;;13.52;86.32;102058.28;4964905;28;20049;-86
2022/05/21 06:16:01;;;;;;;27.88;10.98;;;;;;;13.51;86.08;102061.78;4966117;28;20484;-86
2022/05/21 06:18:26;;;;;;;28.13;11.48;;;;;;;13.51;85.58;102059.19;4973703;28;20030;-85
2022/05/21 06:20:51;;;;;;;27.77;11.20;;;;;;;13.66;86.19;102055.47;4973037;28;20361;-85
2022/05/21 06:23:18;;;;;;;26.90;11.35;;;;;;;13.89;85.39;102058.53;4970735;28;20371;-85
2022/05/21 06:25:43;;;;;;;22.40;11.18;;;;;;;14.05;84.34;102073.03;4969020;28;20496;-86
2022/05/21 06:28:09;;;;;;;29.35;10.85;;;;;;;14.11;82.58;102072.03;4970088;28;20035;-85
2022/05/21 06:30:36;;;;;;;28.42;10.85;;;;;;;14.12;84.12;102066.81;4970153;28;20386;-85
2022/05/21 06:33:12;;;;;;;27.75;11.45;;;;;;;14.12;84.76;102061.59;4964535;28;20551;-86
2022/05/21 06:35:38;;;;;;;28.88;11.32;;;;;;;14.07;82.47;102073.84;4969043;28;20062;-85
2022/05/21 06:38:04;;;;;;;26.90;10.65;;;;;;;14.02;82.84;102080.03;4977504;28;20054;-85
2022/05/21 06:40:29;;;;;;;25.42;10.70;;;;;;;14.02;82.77;102077.41;4966469;28;20031;-85
2022/05/21 06:42:54;;;;;;;29.58;11.93;;;;;;;14.02;81.72;102083.50;4970752;28;20031;-85
2022/05/21 06:45:20;;;;;;;27.63;11.90;;;;;;;14.16;83.56;102083.25;4969316;28;20109;-84
2022/05/21 06:47:45;;;;;;;22.30;10.67;;;;;;;14.29;82.78;102084.72;4964046;28;20031;-85
2022/05/21 06:50:11;;;;;;;25.83;11.37;;;;;;;14.46;82.59;102089.66;4975505;28;20289;-85
2022/05/21 06:52:39;;;;;;;24.55;11.18;;;;;;;14.62;82.26;102088.44;4970653;28;20358;-85
2022/05/21 06:55:05;;;;;;;22.20;11.18;;;;;;;14.74;82.00;102092.56;4969301;28;20046;-85
2022/05/21 06:57:30;;;;;;;29.70;11.93;;;;;;;14.78;79.91;102095.06;4970561;28;20037;-85
2022/05/21 06:59:56;;;;;;;30.70;12.27;;;;;;;14.79;80.04;102081.13;4970641;28;20027;-85
2022/05/21 07:02:24;;;;;;;25.88;11.48;;;;;;;14.86;79.47;102079.25;4976533;28;20410;-85
2022/05/21 07:07:35;;;;;;;30.52;11.38;;;;;;;15.12;77.76;102084.75;4966334;28;20119;-86
2022/05/21 07:10:29;;;;;;;25.67;11.38;;;;;;;15.09;78.46;102095.25;4968837;28;20030;-85
2022/05/21 07:12:54;;;;;;;31.48;11.20;;;;;;;15.02;77.98;102091.94;4963752;28;20027;-85
2022/05/21 07:15:20;;;;;;;26.35;11.13;;;;;;;15.01;78.03;102099.81;4974995;28;20081;-85
2022/05/21 07:17:45;;;;;;;24.30;9.75;;;;;;;15.14;78.21;102093.44;4968196;28;20438;-88
2022/05/21 07:20:21;;;;;;;27.02;11.35;;;;;;;15.16;79.45;102098.59;4974444;28;20031;-87
2022/05/21 07:22:48;;;;;;;23.77;10.35;;;;;;;15.23;77.52;102106.25;4979279;28;20464;-85
2022/05/21 07:25:21;;;;;;;26.05;10.18;;;;;;;15.37;79.46;102111.16;4974786;28;20034;-86
2022/05/21 07:27:47;;;;;;;23.00;10.23;;;;;;;15.49;77.61;102110.88;4973412;28;20497;-86
2022/05/21 07:30:13;;;;;;;25.70;10.10;;;;;;;15.58;77.71;102117.69;4975038;28;20026;-86
2022/05/21 07:32:38;;;;;;;21.25;9.75;;;;;;;15.71;77.80;102117.34;4974433;28;20270;-86
2022/05/21 07:35:11;;;;;;;24.92;9.50;;;;;;;15.75;77.53;102125.97;4973317;28;20397;-87
2022/05/21 07:37:36;;;;;;;25.98;9.32;;;;;;;15.74;75.24;102127.75;4978263;28;20034;-86
2022/05/21 07:40:04;;;;;;;20.50;8.75;;;;;;;15.70;74.86;102120.84;4969093;28;20030;-85
2022/05/21 07:42:30;;;;;;;21.45;9.95;;;;;;;15.64;74.73;102131.47;4962003;28;20125;-85
2022/05/21 07:44:57;;;;;;;22.20;8.90;;;;;;;15.56;75.10;102124.72;4974528;28;20029;-85
2022/05/21 07:47:24;;;;;;;26.15;9.38;;;;;;;15.58;77.48;102115.91;4974217;28;20033;-86
2022/05/21 07:49:51;;;;;;;25.90;9.52;;;;;;;15.63;75.08;102118.41;4973769;28;20022;-85
2022/05/21 07:52:18;;;;;;;24.60;8.30;;;;;;;15.79;75.67;102122.38;4972790;28;20137;-85
2022/05/21 07:54:43;;;;;;;20.50;8.07;;;;;;;15.85;74.01;102118.75;4971815;28;20051;-85
2022/05/21 07:57:08;;;;;;;20.90;8.00;;;;;;;15.91;72.58;102134.28;4974906;28;20038;-86
2022/05/21 07:59:33;;;;;;;17.87;7.37;;;;;;;15.93;72.99;102133.38;4981836;28;20289;-86
2022/05/21 08:01:59;;;;;;;19.98;8.00;;;;;;;16.00;72.76;102140.16;4973862;28;20798;-85
2022/05/21 08:04:25;;;;;;;23.05;8.25;;;;;;;16.04;72.90;102135.69;4976842;28;20589;-86
2022/05/21 08:06:50;;;;;;;25.75;9.40;;;;;;;16.09;74.51;102139.94;4971537;28;20031;-86
2022/05/21 08:09:16;;;;;;;23.27;10.48;;;;;;;16.05;73.42;102142.66;4965058;28;20149;-85
2022/05/21 08:11:42;;;;;;;25.02;10.30;;;;;;;16.07;75.10;102139.09;4971341;28;20030;-86
2022/05/21 08:14:08;;;;;;;21.38;9.68;;;;;;;16.27;73.18;102145.56;4977944;28;20512;-86
2022/05/21 08:16:33;;;;;;;27.55;10.00;;;;;;;16.41;74.71;102146.91;4973590;28;20023;-86
2022/05/21 08:18:59;;;;;;;22.67;8.98;;;;;;;16.44;72.46;102149.47;4974040;28;20022;-85
2022/05/21 08:21:24;;;;;;;20.85;9.13;;;;;;;16.44;71.83;102151.22;4973417;28;20026;-86
2022/05/21 08:27:16;;;;;;;22.38;8.20;;;;;;;17.28;73.39;102149.66;4966959;28;20508;-85
2022/05/21 08:29:24;;;;;;;16.80;7.72;;;;;;;18.13;68.54;102145.16;4972444;28;20122;-85
2022/05/21 08:31:49;;;;;;;19.80;7.82;;;;;;;18.68;71.27;102135.38;4980525;28;20030;-85
2022/05/21 08:34:14;;;;;;;21.00;9.10;;;;;;;18.95;67.76;102138.72;4973730;28;20392;-85
2022/05/21 08:36:40;;;;;;;22.42;8.93;;;;;;;19.15;66.40;102140.59;4973235;28;20114;-86
2022/05/21 08:39:05;;;;;;;18.50;7.95;;;;;;;19.10;63.96;102139.91;4973513;28;20422;-84
2022/05/21 08:41:33;;;;;;;18.45;7.57;;;;;;;19.11;63.01;102138.97;4964913;28;20070;-86
2022/05/21 08:44:16;;;;;;;16.45;6.93;;;;;;;19.34;63.08;102142.44;4968132;28;20027;-86
2022/05/21 08:47:11;;;;;;;17.05;6.30;;;;;;;19.63;63.29;102140.47;4972800;28;20113;-86
2022/05/21 08:49:45;;;;;;;19.67;5.90;;;;;;;19.47;60.87;102139.34;4969050;28;20031;-85
2022/05/21 08:52:21;;;;;;;14.00;5.75;;;;;;;19.49;59.35;102140.16;4972454;28;20054;-85
2022/05/21 08:54:49;;;;;;;19.90;5.85;;;;;;;19.36;62.08;102141.53;4973177;28;20053;-86
2022/05/21 08:57:25;;;;;;;19.98;8.45;;;;;;;19.11;62.11;102139.84;4973032;28;20034;-86
2022/05/21 08:59:57;;;;;;;23.88;9.10;;;;;;;18.95;63.46;102133.47;4972090;28;20035;-80
2022/05/21 09:02:29;;;;;;;17.27;8.75;;;;;;;19.15;63.78;102130.09;4970750;28;20366;-79
2022/05/21 09:04:55;;;;;;;26.38;9.00;;;;;;;19.64;62.98;102123.75;4971504;28;20031;-80
2022/05/21 09:07:24;;;;;;;21.07;7.93;;;;;;;20.21;61.98;102133.59;4985410;28;20037;-80
2022/05/21 09:10:29;;;;;;;22.10;8.35;;;;;;;20.38;61.85;102140.81;4964202;28;20344;-80
2022/05/21 09:13:03;;;;;;;17.90;8.07;;;;;;;20.05;59.12;102129.94;4963761;28;20142;-80
2022/05/21 09:18:14;;;;;;;;;;;;;;;19.79;59.22;102125.72;4960183;28;20049;-80
2022/05/21 09:21:00;;;;;;;20.73;6.90;;;;;;;19.96;62.05;102111.88;4970975;28;19924;-80
2022/05/21 09:24:03;;;;;;;18.23;7.03;;;;;;;20.19;60.00;102114.41;4973241;28;20035;-80
2022/05/21 09:26:41;;;;;;;16.40;7.05;;;;;;;20.13;57.77;102117.25;4969336;28;20096;-80
2022/05/21 09:29:26;;;;;;;16.15;7.00;;;;;;;20.25;59.87;102121.16;4969018;28;20486;-85
2022/05/21 09:31:54;;;;;;;18.67;8.35;;;;;;;20.29;58.41;102128.84;4971356;28;20109;-85
2022/05/21 09:34:28;;;;;;;20.30;9.05;;;;;;;20.01;57.26;102126.56;4969542;28;20030;-85
2022/05/21 09:36:55;;;;;;;19.13;8.70;;;;;;;20.09;56.77;102127.09;4971125;28;20041;-85
2022/05/21 09:39:41;;;;;;;18.38;7.82;;;;;;;20.32;58.26;102125.25;4969343;28;20026;-86
2022/05/21 09:45:22;;;;;;;13.63;6.03;;;;;;;20.28;57.45;102136.81;4962886;28;20068;-82
2022/05/21 09:47:52;;;;;;;12.00;5.78;;;;;;;20.39;56.48;102132.00;4970324;28;20042;-84
2022/05/21 09:50:23;;;;;;;13.02;5.07;;;;;;;20.65;58.08;102133.44;4971969;28;20026;-86
2022/05/21 09:52:49;;;;;;;16.63;5.20;;;;;;;20.74;54.30;102139.19;4971710;28;20025;-86
2022/05/21 09:55:29;;;;;;;14.88;5.60;;;;;;;20.49;56.08;102136.75;4972217;28;20046;-86
2022/05/21 09:58:06;;;;;;;15.10;7.40;;;;;;;19.88;55.89;102137.66;4971229;28;20030;-86
2022/05/21 10:00:34;;;;;;;16.38;7.50;;;;;;;19.30;56.48;102143.50;4969848;28;20525;-86
2022/05/21 10:03:02;;;;;;;17.92;7.75;;;;;;;18.89;58.91;102145.09;4973432;28;20168;-86
2022/05/21 10:05:37;;;;;;;19.67;7.78;;;;;;;19.09;60.74;102143.47;4973763;28;20023;-86
2022/05/21 10:11:10;;;;;;;16.65;7.40;;;;;;;19.86;59.00;102136.84;4973895;28;20096;-86
2022/05/21 10:13:44;;;;;;;16.50;7.30;;;;;;;20.04;57.71;102144.88;4981577;28;20408;-87
2022/05/21 10:16:28;;;;;;;18.27;6.57;;;;;;;20.03;58.22;102145.78;4970326;28;20030;-86
2022/05/21 10:19:06;;;;;;;16.13;6.20;;;;;;;20.17;57.31;102155.72;4971965;28;20054;-86
2022/05/21 10:21:53;;;;;;;13.77;5.45;;;;;;;20.45;56.25;102139.63;4970372;28;20063;-86
2022/05/21 10:24:40;;;;;;;12.73;4.80;;;;;;;20.65;55.10;102152.75;4975804;28;20117;-86
2022/05/21 10:27:20;;;;;;;15.30;5.60;;;;;;;20.62;53.84;102149.38;4974729;28;20077;-86
2022/05/21 10:30:02;;;;;;;12.70;5.72;;;;;;;20.49;54.12;102147.31;4971518;28;20122;-86
2022/05/21 10:33:04;;;;;;;16.65;6.95;;;;;;;20.28;55.21;102142.94;4974217;28;20049;-87
2022/05/21 10:35:48;;;;;;;15.75;7.53;;;;;;;20.03;56.66;102145.78;4971173;28;20061;-86
2022/05/21 10:38:35;;;;;;;15.45;7.00;;;;;;;20.08;57.63;102137.69;4970701;28;20394;-86
2022/05/21 10:41:17;;;;;;;19.15;6.03;;;;;;;20.28;55.05;102145.56;4982020;28;20037;-87
2022/05/21 10:44:01;;;;;;;14.70;5.35;;;;;;;20.43;54.61;102149.34;4971140;28;20033;-86
2022/05/21 10:47:05;;;;;;;14.45;5.30;;;;;;;20.36;54.69;102140.88;4973065;28;20050;-87
2022/05/21 10:49:49;;;;;;;13.98;5.40;;;;;;;20.24;54.73;102151.91;4971229;28;20035;-87
2022/05/21 10:52:21;;;;;;;;;;;;;;;20.17;56.58;102155.72;4971348;28;20153;-83
2022/05/21 10:55:02;;;;;;;18.00;6.10;;;;;;;19.61;55.42;102158.94;4977090;28;19968;-83
2022/05/21 10:57:39;;;;;;;13.25;5.88;;;;;;;19.15;56.37;102165.13;4970793;28;20050;-83
2022/05/21 11:00:14;;;;;;;16.63;6.68;;;;;;;19.08;58.59;102168.03;4970775;28;20336;-83
2022/05/21 11:02:48;;;;;;;17.65;6.75;;;;;;;19.26;57.92;102159.44;4969823;28;20486;-83
2022/05/21 11:05:31;;;;;;;16.85;6.68;;;;;;;19.45;57.60;102167.47;4982659;28;20023;-84
2022/05/21 11:08:04;;;;;;;20.75;7.90;;;;;;;19.64;56.67;102158.81;4968031;28;20029;-83
2022/05/21 11:10:46;;;;;;;15.88;6.97;;;;;;;19.84;58.56;102154.50;4970893;28;20476;-80
2022/05/21 11:13:23;;;;;;;18.27;7.15;;;;;;;20.03;59.42;102148.41;4970362;28;20042;-83
2022/05/21 11:15:54;;;;;;;16.98;6.78;;;;;;;19.94;54.52;102153.19;4968589;28;20031;-81
2022/05/21 11:18:48;;;;;;;16.02;7.20;;;;;;;19.82;55.97;102162.47;4997789;28;20242;-81
2022/05/21 11:21:31;;;;;;;12.50;6.00;;;;;;;19.69;56.48;102164.75;4973293;28;20030;-81
2022/05/21 11:24:10;;;;;;;15.63;5.60;;;;;;;19.80;56.41;102160.81;4970989;28;20030;-81
2022/05/21 11:26:52;;;;;;;13.43;5.40;;;;;;;19.79;57.76;102153.84;4970499;28;20019;-80
2022/05/21 11:29:59;;;;;;;11.52;4.50;;;;;;;19.79;56.55;102167.00;4970646;28;20463;-81
2022/05/21 11:38:38;;;;;;;10.30;3.42;;;;;;;20.05;55.43;102159.75;4975217;28;20037;-85
2022/05/21 11:46:51;;;;;;;10.15;3.58;;;;;;;20.32;52.39;102156.84;4970643;28;20171;-84
2022/05/21 11:49:35;;;;;;;12.75;4.00;;;;;;;20.47;54.96;102140.41;4968840;28;20477;-84
2022/05/21 11:52:26;;;;;;;10.67;4.10;;;;;;;20.72;53.93;102155.97;4981207;28;20042;-84
2022/05/21 11:54:51;;;;;;;10.10;4.03;;;;;;;20.82;50.15;102154.63;4963509;28;20130;-85
2022/05/21 11:57:34;;;;;;;9.87;3.80;;;;;;;20.91;53.60;102151.56;4959581;28;20113;-84
2022/05/21 12:00:04;;;;;;;11.53;3.90;;;;;;;21.07;52.53;102147.31;4979183;28;20043;-84
2022/05/21 12:02:32;;;;;;;11.93;3.97;;;;;;;21.28;52.20;102148.97;4973715;28;20162;-85